Time;durP1;ratioP1;P1;durP2;ratioP2;P2;SDS_P1;SDS_P2;PMS_P1;PMS_P2;Temp;Humidity;BMP_temperature;BMP_pressure;BME280_temperature;BME280_humidity;BME280_pressure;Samples;Min_cycle;Max_cycle;Signal;HPM_P1;HPM_P2
2023/06/03 00:00:26;;;;;;;8.10;4.57;;;;;;;9.19;92.11;97267.41;4962185;28;20042;-62
2023/06/03 00:02:53;;;;;;;9.20;4.82;;;;;;;9.13;93.38;97263.81;4954090;28;20042;-62
2023/06/03 00:05:21;;;;;;;8.85;4.80;;;;;;;9.09;94.05;97265.34;4960306;28;20039;-62
2023/06/03 00:07:47;;;;;;;7.38;5.28;;;;;;;9.21;92.95;97266.09;4958507;28;20047;-62
2023/06/03 00:10:14;;;;;;;7.70;4.68;;;;;;;9.44;92.51;97266.19;4955701;28;20090;-62
2023/06/03 00:12:41;;;;;;;8.07;4.93;;;;;;;9.46;91.66;97262.16;4953076;28;20039;-62
2023/06/03 00:15:09;;;;;;;11.18;4.88;;;;;;;9.59;91.84;97266.38;4956579;28;20513;-62
2023/06/03 00:17:35;;;;;;;9.23;4.95;;;;;;;9.52;91.36;97267.63;4960682;28;20031;-62
2023/06/03 00:20:06;;;;;;;8.98;4.72;;;;;;;9.57;91.27;97259.59;4953103;28;20047;-63
2023/06/03 00:22:35;;;;;;;10.90;4.72;;;;;;;9.46;91.40;97258.63;4960102;28;20070;-62
2023/06/03 00:25:02;;;;;;;9.35;5.40;;;;;;;9.35;92.11;97261.19;4957949;28;20042;-62
2023/06/03 00:27:28;;;;;;;8.77;4.28;;;;;;;9.43;91.78;97254.53;4960987;28;20126;-63
2023/06/03 00:29:55;;;;;;;11.82;5.15;;;;;;;9.46;91.85;97262.16;4957566;28;20421;-62
2023/06/03 00:32:21;;;;;;;13.48;4.93;;;;;;;9.29;92.19;97261.38;4956902;28;20522;-62
2023/06/03 00:34:48;;;;;;;11.95;4.57;;;;;;;9.19;92.88;97260.13;4959651;28;20342;-62
2023/06/03 00:37:14;;;;;;;11.55;4.70;;;;;;;9.23;92.30;97265.88;4955058;28;20039;-62
2023/06/03 00:39:41;;;;;;;10.52;4.85;;;;;;;9.25;92.28;97258.31;4974803;28;20043;-62
2023/06/03 00:42:08;;;;;;;8.10;4.38;;;;;;;9.17;92.94;97262.25;4960099;28;20727;-62
2023/06/03 00:44:35;;;;;;;12.02;4.40;;;;;;;9.33;92.78;97262.50;4957572;28;20122;-63
2023/06/03 00:47:02;;;;;;;9.60;3.95;;;;;;;9.33;91.92;97260.59;4957891;28;20051;-63
2023/06/03 00:49:29;;;;;;;11.52;4.45;;;;;;;9.28;92.48;97259.72;4954422;28;20561;-62
2023/06/03 00:51:56;;;;;;;9.25;4.18;;;;;;;9.30;92.09;97254.88;4953744;28;20047;-62
2023/06/03 00:54:23;;;;;;;9.65;4.63;;;;;;;9.08;93.74;97252.94;4958856;28;20069;-62
2023/06/03 00:56:49;;;;;;;10.45;4.72;;;;;;;9.01;93.87;97254.97;4949647;28;20462;-62
2023/06/03 00:59:17;;;;;;;8.75;4.25;;;;;;;9.05;94.38;97250.72;4953399;28;20490;-62
2023/06/03 01:01:44;;;;;;;9.48;4.10;;;;;;;9.14;93.75;97251.94;4958390;28;20227;-62
2023/06/03 01:04:16;;;;;;;7.55;4.25;;;;;;;9.06;94.13;97253.16;4958469;28;20577;-63
2023/06/03 01:07:06;;;;;;;9.57;4.30;;;;;;;9.04;93.96;97244.50;4942741;28;20031;-62
2023/06/03 01:09:47;;;;;;;9.00;4.03;;;;;;;8.92;93.57;97244.56;4959499;28;20035;-62
2023/06/03 01:12:33;;;;;;;10.60;4.28;;;;;;;8.99;94.34;97239.00;4953018;28;20039;-62
2023/06/03 01:15:06;;;;;;;8.45;3.97;;;;;;;9.00;94.62;97246.06;4957149;28;20049;-62
2023/06/03 01:17:36;;;;;;;;;;;;;;;8.94;94.74;97242.44;4959295;28;20506;-62
2023/06/03 01:20:04;;;;;;;11.95;4.25;;;;;;;8.87;95.65;97257.16;4979317;28;19922;-62
2023/06/03 01:22:36;;;;;;;9.50;4.68;;;;;;;8.76;95.62;97248.88;4951946;28;20043;-62
2023/06/03 01:25:05;;;;;;;9.80;4.00;;;;;;;8.96;94.94;97244.91;4961300;28;20622;-63
2023/06/03 01:27:32;;;;;;;11.75;3.92;;;;;;;8.84;95.81;97248.50;4958441;28;20502;-63
2023/06/03 01:29:59;;;;;;;12.80;6.32;;;;;;;8.75;95.58;97244.56;4958024;28;20054;-62
2023/06/03 01:32:29;;;;;;;10.80;4.10;;;;;;;8.73;96.12;97246.66;4957067;28;20490;-62
2023/06/03 01:34:56;;;;;;;8.93;3.95;;;;;;;8.63;97.39;97243.78;4955749;28;20051;-62
2023/06/03 01:37:22;;;;;;;9.75;4.15;;;;;;;8.63;96.83;97241.94;4955038;28;20040;-62
2023/06/03 01:39:50;;;;;;;10.02;3.80;;;;;;;8.59;97.44;97238.06;4959344;28;20051;-62
2023/06/03 01:42:17;;;;;;;10.07;5.10;;;;;;;8.55;97.20;97245.81;4956727;28;20035;-62
2023/06/03 01:44:44;;;;;;;9.95;5.07;;;;;;;8.51;97.92;97247.31;4957728;28;20050;-63
2023/06/03 01:47:11;;;;;;;8.10;4.15;;;;;;;8.52;97.32;97245.47;4962397;28;20058;-62
2023/06/03 01:49:38;;;;;;;10.60;4.15;;;;;;;8.45;98.25;97248.31;4958238;28;20054;-62
2023/06/03 01:52:05;;;;;;;9.85;4.28;;;;;;;8.42;98.10;97246.91;4955900;28;20477;-62
2023/06/03 01:54:32;;;;;;;13.10;4.40;;;;;;;8.50;98.27;97240.31;4956965;28;20403;-62
2023/06/03 01:57:00;;;;;;;8.20;3.90;;;;;;;8.42;96.62;97243.38;4957391;28;20503;-62
2023/06/03 01:59:26;;;;;;;9.90;4.35;;;;;;;8.19;99.31;97245.91;4978340;28;20137;-63
2023/06/03 02:01:55;;;;;;;10.00;3.72;;;;;;;8.23;99.46;97243.59;4974641;28;20066;-62
2023/06/03 02:04:22;;;;;;;10.23;4.00;;;;;;;8.18;99.09;97243.47;4953230;28;20122;-62
2023/06/03 02:06:51;;;;;;;11.18;4.18;;;;;;;8.11;100.00;97251.69;4963954;28;20235;-62
2023/06/03 02:09:21;;;;;;;9.32;4.00;;;;;;;8.03;100.00;97242.09;4952744;28;20035;-62
2023/06/03 02:11:52;;;;;;;12.45;5.05;;;;;;;7.99;100.00;97242.84;4959298;28;20043;-63
2023/06/03 02:14:18;;;;;;;12.27;4.35;;;;;;;8.06;100.00;97241.63;4950228;28;20130;-63
2023/06/03 02:16:45;;;;;;;10.23;4.57;;;;;;;8.20;99.77;97244.06;4960318;28;20038;-63
2023/06/03 02:19:15;;;;;;;8.57;3.78;;;;;;;8.15;99.83;97242.06;4960054;28;20109;-63
2023/06/03 02:21:42;;;;;;;15.10;4.80;;;;;;;8.08;100.00;97230.63;4960291;28;20043;-63
2023/06/03 02:24:10;;;;;;;8.80;4.10;;;;;;;7.95;100.00;97229.00;4975949;28;20047;-63
2023/06/03 02:26:49;;;;;;;8.00;3.72;;;;;;;7.94;100.00;97233.59;4960188;28;20042;-63
2023/06/03 02:29:18;;;;;;;9.32;4.22;;;;;;;7.74;100.00;97241.25;4954071;28;20043;-63
2023/06/03 02:31:49;;;;;;;11.13;4.85;;;;;;;7.76;100.00;97244.50;4955007;28;20051;-63
2023/06/03 02:34:18;;;;;;;10.20;3.92;;;;;;;7.87;100.00;97242.84;4956973;28;20150;-63
2023/06/03 02:36:44;;;;;;;7.35;4.07;;;;;;;7.77;100.00;97246.13;4956949;28;20042;-62
2023/06/03 02:39:13;;;;;;;7.97;4.10;;;;;;;7.90;100.00;97239.69;4952527;28;20043;-63
2023/06/03 02:41:41;;;;;;;9.18;4.30;;;;;;;7.75;100.00;97241.00;4955232;28;20042;-63
2023/06/03 02:44:15;;;;;;;10.18;4.38;;;;;;;7.68;100.00;97237.63;4975859;28;20056;-63
2023/06/03 02:46:42;;;;;;;7.70;4.07;;;;;;;7.87;100.00;97237.44;4956281;28;20106;-62
2023/06/03 02:49:09;;;;;;;10.13;4.70;;;;;;;7.88;100.00;97229.13;4973801;28;20445;-63
2023/06/03 02:51:40;;;;;;;10.07;4.68;;;;;;;7.58;100.00;97240.06;4956399;28;20552;-63
2023/06/03 02:54:07;;;;;;;9.90;4.10;;;;;;;7.66;100.00;97240.53;4950682;28;20049;-63
2023/06/03 02:56:34;;;;;;;9.68;4.28;;;;;;;7.64;100.00;97245.34;4961656;28;20031;-63
2023/06/03 02:59:01;;;;;;;11.68;4.40;;;;;;;7.62;100.00;97246.63;4960930;28;20082;-62
2023/06/03 03:01:28;;;;;;;11.38;4.40;;;;;;;7.60;100.00;97248.75;4963883;28;20126;-63
2023/06/03 03:03:55;;;;;;;7.22;4.25;;;;;;;7.42;100.00;97254.00;4956076;28;20054;-62
2023/06/03 03:06:24;;;;;;;10.02;4.70;;;;;;;7.25;100.00;97243.13;4962133;28;20046;-63
2023/06/03 03:08:51;;;;;;;6.97;4.05;;;;;;;7.35;100.00;97247.13;4955355;28;20043;-63
2023/06/03 03:11:27;;;;;;;14.50;5.70;;;;;;;7.29;100.00;97246.16;4975188;28;20521;-63
2023/06/03 03:13:55;;;;;;;10.45;4.28;;;;;;;7.38;100.00;97255.53;4963555;28;20078;-63
2023/06/03 03:16:24;;;;;;;9.48;4.47;;;;;;;7.45;100.00;97246.53;4966269;28;20528;-63
2023/06/03 03:18:51;;;;;;;9.40;4.45;;;;;;;7.51;100.00;97246.41;4979302;28;20042;-63
2023/06/03 03:21:19;;;;;;;9.50;4.28;;;;;;;7.43;100.00;97254.84;4949048;28;20043;-63
2023/06/03 03:23:46;;;;;;;8.38;4.55;;;;;;;7.36;100.00;97254.13;4954722;28;20099;-63
2023/06/03 03:26:13;;;;;;;10.35;4.80;;;;;;;7.40;100.00;97250.75;4959427;28;20051;-63
2023/06/03 03:28:41;;;;;;;9.35;4.82;;;;;;;7.47;100.00;97247.09;4959801;28;20532;-62
2023/06/03 03:31:09;;;;;;;10.00;4.40;;;;;;;7.33;100.00;97251.94;4975601;28;20405;-63
2023/06/03 03:33:36;;;;;;;9.35;4.60;;;;;;;7.11;100.00;97250.59;4960897;28;20101;-62
2023/06/03 03:36:26;;;;;;;9.90;5.10;;;;;;;7.39;100.00;97251.81;4959840;28;20041;-63
2023/06/03 03:39:06;;;;;;;7.30;4.10;;;;;;;7.41;100.00;97265.06;4971228;28;20050;-63
2023/06/03 03:41:42;;;;;;;10.77;5.15;;;;;;;7.28;100.00;97261.53;4974983;28;20055;-63
2023/06/03 03:44:11;;;;;;;10.98;5.18;;;;;;;7.27;100.00;97259.88;4956880;28;20051;-63
2023/06/03 03:46:46;;;;;;;9.88;5.10;;;;;;;7.23;100.00;97255.19;4956503;28;20487;-63
2023/06/03 03:49:25;;;;;;;9.02;4.50;;;;;;;7.18;100.00;97250.50;4977317;28;20582;-63
2023/06/03 03:51:52;;;;;;;9.73;4.95;;;;;;;7.14;100.00;97252.84;4974755;28;20549;-63
2023/06/03 03:54:23;;;;;;;10.90;4.90;;;;;;;7.28;100.00;97261.53;4958214;28;20050;-63
2023/06/03 03:56:55;;;;;;;9.30;4.63;;;;;;;7.37;100.00;97261.19;4959783;28;20051;-63
2023/06/03 03:59:26;;;;;;;9.05;3.92;;;;;;;7.34;100.00;97258.94;4961238;28;20089;-62
2023/06/03 04:01:53;;;;;;;8.45;4.28;;;;;;;7.33;100.00;97257.31;4976214;28;20046;-62
2023/06/03 04:04:42;;;;;;;9.77;4.75;;;;;;;7.31;100.00;97265.63;4951008;28;20075;-63
2023/06/03 04:07:11;;;;;;;12.88;5.25;;;;;;;7.37;100.00;97264.69;4955987;28;20040;-63
2023/06/03 04:09:39;;;;;;;8.38;4.18;;;;;;;7.37;100.00;97267.38;4958640;28;20034;-63
2023/06/03 04:12:23;;;;;;;8.57;5.32;;;;;;;7.51;100.00;97269.81;4954677;28;20070;-63
2023/06/03 04:14:51;;;;;;;10.82;4.90;;;;;;;7.62;100.00;97274.41;4956230;28;20106;-63
2023/06/03 04:17:21;;;;;;;10.70;5.05;;;;;;;7.75;100.00;97267.97;4957996;28;20042;-63
2023/06/03 04:19:48;;;;;;;11.65;4.45;;;;;;;7.88;100.00;97276.81;4960929;28;20192;-63
2023/06/03 04:22:26;;;;;;;12.25;4.70;;;;;;;7.93;100.00;97266.97;4958428;28;20066;-63
2023/06/03 04:24:58;;;;;;;8.52;4.47;;;;;;;7.95;100.00;97272.13;4958399;28;20050;-63
2023/06/03 04:27:41;;;;;;;10.30;4.78;;;;;;;7.97;100.00;97266.50;4960266;28;20043;-63
2023/06/03 04:30:10;;;;;;;11.77;4.95;;;;;;;8.11;100.00;97275.97;4959418;28;20046;-63
2023/06/03 04:32:37;;;;;;;8.45;4.20;;;;;;;8.22;100.00;97277.00;4975052;28;20058;-63
2023/06/03 04:35:04;;;;;;;8.15;4.40;;;;;;;8.36;100.00;97274.84;4951605;28;20074;-63
2023/06/03 04:37:35;;;;;;;10.43;4.60;;;;;;;8.35;100.00;97280.47;4953089;28;20102;-63
2023/06/03 04:40:03;;;;;;;7.80;4.45;;;;;;;8.49;100.00;97281.00;4956938;28;20034;-63
2023/06/03 04:42:30;;;;;;;11.50;4.75;;;;;;;8.62;100.00;97275.34;4960339;28;20140;-63
2023/06/03 04:44:59;;;;;;;10.32;4.50;;;;;;;8.67;100.00;97280.84;4954145;28;20051;-63
2023/06/03 04:47:29;;;;;;;10.40;4.30;;;;;;;8.90;100.00;97280.97;4949954;28;20065;-63
2023/06/03 04:49:58;;;;;;;9.10;3.72;;;;;;;9.19;99.33;97284.47;4949822;28;20218;-63
2023/06/03 04:52:24;;;;;;;9.80;4.70;;;;;;;9.16;100.00;97279.53;4955004;28;20046;-63
2023/06/03 04:54:52;;;;;;;7.30;4.38;;;;;;;9.29;100.00;97274.88;4956889;28;20046;-63
2023/06/03 04:57:22;;;;;;;10.48;3.85;;;;;;;9.39;100.00;97285.03;4956502;28;20057;-63
2023/06/03 04:59:49;;;;;;;10.85;4.43;;;;;;;9.55;98.71;97275.25;4961644;28;20502;-63
2023/06/03 05:02:20;;;;;;;9.73;4.03;;;;;;;9.78;97.33;97268.00;4949579;28;20497;-63
2023/06/03 05:04:49;;;;;;;10.95;4.00;;;;;;;10.04;93.44;97258.34;4973340;28;20039;-63
2023/06/03 05:07:16;;;;;;;8.30;4.00;;;;;;;10.24;91.50;97265.06;4949480;28;20047;-63
2023/06/03 05:09:44;;;;;;;8.48;4.15;;;;;;;10.41;93.42;97270.41;4954077;28;20047;-63
2023/06/03 05:12:11;;;;;;;11.68;4.55;;;;;;;10.63;90.56;97264.19;4971742;28;20054;-63
2023/06/03 05:14:38;;;;;;;10.25;4.10;;;;;;;10.70;90.11;97259.38;4944612;28;20043;-63
2023/06/03 05:17:04;;;;;;;11.30;3.53;;;;;;;10.84;89.16;97261.69;4955634;28;20051;-63
2023/06/03 05:19:34;;;;;;;8.88;4.07;;;;;;;10.93;87.84;97263.69;4953968;28;20054;-63
2023/06/03 05:22:03;;;;;;;6.38;3.90;;;;;;;11.06;87.10;97264.34;4951426;28;20110;-63
2023/06/03 05:24:30;;;;;;;11.32;4.25;;;;;;;11.20;86.03;97261.97;4952467;28;20054;-63
2023/06/03 05:26:59;;;;;;;7.15;3.45;;;;;;;11.28;85.25;97264.22;4949100;28;20057;-63
2023/06/03 05:29:26;;;;;;;9.90;3.42;;;;;;;11.37;85.29;97266.44;4952659;28;20429;-63
2023/06/03 05:31:53;;;;;;;11.40;4.65;;;;;;;11.49;83.86;97274.38;4954368;28;20676;-63
2023/06/03 05:34:20;;;;;;;9.35;3.78;;;;;;;11.62;83.67;97268.53;4967993;28;20532;-63
2023/06/03 05:36:46;;;;;;;7.40;3.35;;;;;;;11.68;83.11;97272.91;4954675;28;20389;-63
2023/06/03 05:39:13;;;;;;;11.48;4.28;;;;;;;11.79;83.43;97265.66;4956876;28;20069;-62
2023/06/03 05:41:40;;;;;;;9.38;4.03;;;;;;;11.80;83.20;97269.19;4957128;28;20043;-63
2023/06/03 05:44:08;;;;;;;12.07;4.32;;;;;;;11.91;81.82;97265.44;4946358;28;20047;-63
2023/06/03 05:46:35;;;;;;;13.90;4.20;;;;;;;11.92;81.84;97260.84;4954802;28;20150;-63
2023/06/03 05:49:02;;;;;;;11.40;4.47;;;;;;;12.07;81.39;97255.53;4954027;28;20596;-63
2023/06/03 05:51:29;;;;;;;8.57;3.40;;;;;;;12.21;80.30;97255.03;4974102;28;20070;-63
2023/06/03 05:53:56;;;;;;;8.15;3.83;;;;;;;12.29;80.72;97259.13;4956981;28;20039;-63
2023/06/03 05:56:24;;;;;;;8.38;3.80;;;;;;;12.36;81.01;97254.28;4949281;28;20046;-63
2023/06/03 05:58:51;;;;;;;8.60;3.47;;;;;;;12.47;80.57;97261.38;4952785;28;20075;-63
2023/06/03 06:01:18;;;;;;;7.57;3.75;;;;;;;12.59;79.45;97261.13;4954288;28;20418;-63
2023/06/03 06:03:45;;;;;;;7.22;4.07;;;;;;;12.70;79.14;97258.41;4947037;28;20051;-63
2023/06/03 06:06:13;;;;;;;8.07;3.25;;;;;;;12.72;78.48;97264.41;4977944;28;20086;-63
2023/06/03 06:08:39;;;;;;;7.75;3.78;;;;;;;12.81;78.36;97265.50;4954403;28;20051;-63
2023/06/03 06:11:06;;;;;;;9.65;3.28;;;;;;;12.97;77.44;97262.81;4949738;28;20404;-63
2023/06/03 06:13:33;;;;;;;10.38;4.60;;;;;;;12.94;77.03;97266.06;4970069;28;20436;-63
2023/06/03 06:16:02;;;;;;;9.35;4.13;;;;;;;13.12;77.60;97262.03;4953162;28;20254;-63
2023/06/03 06:18:30;;;;;;;7.25;3.53;;;;;;;13.11;76.09;97263.09;4957230;28;20043;-63
2023/06/03 06:20:57;;;;;;;9.02;3.88;;;;;;;13.23;75.79;97273.72;4971805;28;20406;-63
2023/06/03 06:23:25;;;;;;;14.23;3.80;;;;;;;13.33;76.24;97268.25;4958086;28;20055;-63
2023/06/03 06:25:54;;;;;;;11.88;4.20;;;;;;;13.33;75.21;97265.53;4957490;28;20047;-63
2023/06/03 06:28:26;;;;;;;9.00;3.83;;;;;;;13.43;75.39;97269.34;4959986;28;20042;-63
2023/06/03 06:31:01;;;;;;;8.73;4.45;;;;;;;13.55;75.63;97269.91;4963198;28;20053;-63
2023/06/03 06:33:35;;;;;;;12.98;4.60;;;;;;;13.45;74.54;97273.41;4964180;28;20059;-63
2023/06/03 06:36:29;;;;;;;11.43;4.95;;;;;;;13.50;74.63;97278.88;4959482;28;20478;-63
2023/06/03 06:38:58;;;;;;;13.02;5.18;;;;;;;13.62;74.57;97273.16;4953099;28;20256;-63
2023/06/03 06:41:27;;;;;;;10.48;5.03;;;;;;;13.74;74.79;97272.88;4953080;28;20035;-63
2023/06/03 06:43:56;;;;;;;9.20;4.15;;;;;;;13.79;73.13;97274.78;4963730;28;20066;-63
2023/06/03 06:46:24;;;;;;;12.15;5.65;;;;;;;13.99;71.51;97279.34;4964905;28;20493;-62
2023/06/03 06:48:51;;;;;;;10.68;5.20;;;;;;;14.12;71.50;97280.66;4958791;28;20139;-62
2023/06/03 06:51:19;;;;;;;14.68;5.20;;;;;;;14.18;70.79;97279.56;4963113;28;20533;-63
2023/06/03 06:53:52;;;;;;;11.25;3.90;;;;;;;14.24;71.79;97276.81;4959689;28;20050;-63
2023/06/03 06:56:19;;;;;;;9.40;4.53;;;;;;;14.35;71.61;97264.78;4956566;28;20117;-63
2023/06/03 06:58:54;;;;;;;8.27;3.95;;;;;;;14.46;70.19;97268.28;4954997;28;20578;-63
2023/06/03 07:01:22;;;;;;;11.63;4.55;;;;;;;14.60;69.29;97270.38;4958254;28;20057;-62
2023/06/03 07:03:52;;;;;;;8.45;3.67;;;;;;;14.47;68.23;97266.34;4962495;28;20039;-63
2023/06/03 07:06:18;;;;;;;9.40;3.95;;;;;;;14.55;68.52;97271.22;4981704;28;20511;-63
2023/06/03 07:08:48;;;;;;;11.70;4.38;;;;;;;14.63;67.02;97258.94;4959233;28;20038;-63
2023/06/03 07:11:17;;;;;;;8.68;4.22;;;;;;;14.76;67.81;97268.38;4958678;28;20058;-63
2023/06/03 07:13:51;;;;;;;10.88;4.60;;;;;;;14.69;67.40;97269.53;4977234;28;20149;-47
2023/06/03 07:16:19;;;;;;;10.90;3.97;;;;;;;14.89;67.86;97267.78;4960185;28;20049;-50
2023/06/03 07:18:46;;;;;;;8.63;4.50;;;;;;;14.92;67.88;97259.03;4958280;28;20081;-49
2023/06/03 07:21:16;;;;;;;8.48;4.15;;;;;;;15.20;65.71;97264.84;4964513;28;20047;-48
2023/06/03 07:23:47;;;;;;;11.13;3.40;;;;;;;15.52;65.71;97265.38;4961229;28;20078;-50
2023/06/03 07:26:15;;;;;;;7.53;3.70;;;;;;;15.51;65.44;97265.69;4958797;28;20568;-48
2023/06/03 07:28:41;;;;;;;10.10;5.18;;;;;;;15.53;65.13;97267.03;4959628;28;20540;-49
2023/06/03 07:31:11;;;;;;;8.60;3.88;;;;;;;15.66;65.41;97270.97;4958054;28;20241;-50
2023/06/03 07:33:51;;;;;;;7.38;4.32;;;;;;;15.81;65.01;97274.69;4972400;28;20066;-48
2023/06/03 07:36:24;;;;;;;12.23;4.82;;;;;;;15.62;64.81;97280.84;4968267;28;20515;-49
2023/06/03 07:39:00;;;;;;;11.88;4.50;;;;;;;15.48;65.79;97276.06;4975443;28;20046;-49
2023/06/03 07:41:35;;;;;;;8.38;4.15;;;;;;;15.74;64.92;97280.47;4958848;28;20043;-48
2023/06/03 07:44:14;;;;;;;9.60;3.72;;;;;;;15.94;63.78;97273.16;4960056;28;20125;-49
2023/06/03 07:46:45;;;;;;;8.55;4.00;;;;;;;16.15;62.30;97282.00;4962012;28;20043;-51
2023/06/03 07:49:14;;;;;;;8.43;4.05;;;;;;;16.10;63.08;97279.28;4956883;28;20510;-48
2023/06/03 07:51:46;;;;;;;8.80;4.00;;;;;;;16.30;63.03;97278.28;4955783;28;20110;-49
2023/06/03 07:54:14;;;;;;;9.45;3.78;;;;;;;16.56;61.47;97285.31;4959677;28;20038;-49
2023/06/03 07:56:41;;;;;;;8.00;4.03;;;;;;;16.63;61.23;97294.78;4960192;28;20043;-51
2023/06/03 07:59:09;;;;;;;9.77;3.65;;;;;;;16.65;60.57;97286.28;4956020;28;20047;-48
2023/06/03 08:01:36;;;;;;;9.15;4.88;;;;;;;16.67;60.70;97286.81;4956182;28;20087;-48
2023/06/03 08:04:05;;;;;;;9.30;3.70;;;;;;;16.77;61.66;97289.41;4946131;28;20054;-47
2023/06/03 08:06:36;;;;;;;10.73;4.20;;;;;;;16.79;60.98;97280.91;4955521;28;20043;-47
2023/06/03 08:09:03;;;;;;;11.73;4.95;;;;;;;17.02;61.48;97286.59;4956070;28;20038;-49
2023/06/03 08:11:30;;;;;;;12.73;4.78;;;;;;;16.73;59.80;97285.63;4958599;28;20156;-49
2023/06/03 08:13:57;;;;;;;10.15;3.78;;;;;;;16.95;59.86;97289.69;4951532;28;20084;-47
2023/06/03 08:16:23;;;;;;;8.05;4.38;;;;;;;17.18;59.33;97294.59;4957171;28;20250;-48
2023/06/03 08:18:52;;;;;;;10.43;4.55;;;;;;;17.21;58.80;97292.06;4975013;28;20039;-47
2023/06/03 08:21:18;;;;;;;11.05;4.10;;;;;;;17.03;59.71;97293.72;4956576;28;20038;-49
2023/06/03 08:23:45;;;;;;;7.55;4.20;;;;;;;17.16;58.61;97298.47;4963878;28;20049;-49
2023/06/03 08:26:11;;;;;;;8.80;4.20;;;;;;;17.20;58.96;97293.19;4956989;28;20046;-47
2023/06/03 08:28:38;;;;;;;10.38;5.15;;;;;;;17.29;58.97;97287.88;4957167;28;20035;-50
2023/06/03 08:31:05;;;;;;;8.80;4.05;;;;;;;17.50;58.44;97295.72;4957955;28;20106;-49
2023/06/03 08:33:32;;;;;;;11.00;4.30;;;;;;;17.65;56.90;97300.94;4958908;28;20470;-46
2023/06/03 08:35:59;;;;;;;7.50;3.97;;;;;;;17.71;56.95;97298.13;4956835;28;20121;-50
2023/06/03 08:38:26;;;;;;;9.07;4.10;;;;;;;17.35;57.79;97294.03;4957670;28;20497;-49
2023/06/03 08:40:53;;;;;;;9.85;4.38;;;;;;;17.43;58.78;97301.56;4958294;28;20042;-51
2023/06/03 08:43:22;;;;;;;11.45;4.40;;;;;;;17.68;58.71;97302.25;4951853;28;20104;-47
2023/06/03 08:45:55;;;;;;;9.73;3.83;;;;;;;17.60;58.58;97297.47;4954347;28;20058;-52
2023/06/03 08:48:50;;;;;;;8.88;4.30;;;;;;;17.80;57.50;97301.81;4958923;28;20125;-49
2023/06/03 08:51:21;;;;;;;11.27;4.40;;;;;;;17.85;57.29;97295.41;4957921;28;20046;-48
2023/06/03 08:53:49;;;;;;;;;;;;;;;18.00;57.55;97299.78;4956082;28;20039;-46
2023/06/03 08:56:18;;;;;;;7.57;3.90;;;;;;;18.15;56.05;97305.03;4964403;28;19962;-49
2023/06/03 08:58:54;;;;;;;10.77;4.22;;;;;;;18.42;56.09;97297.09;4963862;28;20074;-49
2023/06/03 09:01:29;;;;;;;6.97;3.17;;;;;;;18.55;55.53;97299.03;4958514;28;20054;-49
2023/06/03 09:03:56;;;;;;;10.88;4.03;;;;;;;18.57;55.80;97301.44;4959297;28;20481;-52
2023/06/03 09:06:23;;;;;;;6.35;3.45;;;;;;;18.56;55.28;97303.38;4960606;28;20062;-49
2023/06/03 09:08:53;;;;;;;11.10;5.32;;;;;;;18.69;54.41;97299.00;4959691;28;20030;-52
2023/06/03 09:11:20;;;;;;;8.00;4.00;;;;;;;18.54;54.63;97308.34;4961311;28;20039;-50
2023/06/03 09:13:47;;;;;;;9.50;4.53;;;;;;;18.68;55.03;97310.25;4958823;28;20106;-48
2023/06/03 09:16:17;;;;;;;10.10;4.28;;;;;;;18.72;55.35;97297.56;4954283;28;20145;-47
2023/06/03 09:18:44;;;;;;;8.00;3.80;;;;;;;18.76;55.18;97303.25;4955659;28;20054;-48
2023/06/03 09:21:11;;;;;;;9.70;4.38;;;;;;;18.91;54.47;97310.34;4954830;28;20050;-48
2023/06/03 09:23:39;;;;;;;9.95;4.88;;;;;;;18.81;54.22;97303.16;4954714;28;20516;-47
2023/06/03 09:26:07;;;;;;;11.48;4.00;;;;;;;18.70;54.59;97310.78;4949410;28;20050;-47
2023/06/03 09:28:36;;;;;;;9.52;4.45;;;;;;;18.82;55.30;97307.50;4954115;28;20070;-51
2023/06/03 09:31:05;;;;;;;10.30;4.30;;;;;;;18.97;54.45;97301.69;4956051;28;20418;-50
2023/06/03 09:33:32;;;;;;;9.05;4.38;;;;;;;19.06;54.31;97301.78;4951679;28;20141;-50
2023/06/03 09:36:17;;;;;;;8.32;4.72;;;;;;;18.88;54.50;97302.72;4953861;28;20046;-49
2023/06/03 09:38:56;;;;;;;8.57;5.25;;;;;;;18.96;54.59;97300.06;4955073;28;20047;-51
2023/06/03 09:41:26;;;;;;;11.20;4.47;;;;;;;19.03;54.09;97291.41;4956720;28;20047;-52
2023/06/03 09:43:56;;;;;;;8.10;4.00;;;;;;;18.96;54.26;97294.59;4956364;28;20058;-51
2023/06/03 09:46:24;;;;;;;8.27;4.07;;;;;;;19.19;54.17;97294.63;4960432;28;20074;-49
2023/06/03 09:48:50;;;;;;;12.23;4.32;;;;;;;18.91;54.63;97288.41;4957717;28;20046;-47
2023/06/03 09:51:17;;;;;;;9.88;4.50;;;;;;;18.95;55.06;97286.66;4954257;28;20062;-51
2023/06/03 09:53:44;;;;;;;9.15;4.65;;;;;;;19.13;53.67;97295.88;4948087;28;20078;-48
2023/06/03 09:56:22;;;;;;;11.85;4.63;;;;;;;19.17;54.44;97290.56;4951865;28;20126;-49
2023/06/03 09:58:51;;;;;;;9.98;4.45;;;;;;;19.19;54.16;97288.31;4965184;28;20283;-48
2023/06/03 10:01:33;;;;;;;15.48;4.68;;;;;;;19.30;53.92;97289.72;4951128;28;20084;-51
2023/06/03 10:04:00;;;;;;;10.35;4.70;;;;;;;19.23;53.51;97286.56;4954183;28;20422;-54
2023/06/03 10:06:27;;;;;;;8.27;4.00;;;;;;;19.41;54.08;97295.75;4957518;28;20510;-48
2023/06/03 10:08:54;;;;;;;8.57;4.55;;;;;;;19.34;53.82;97287.13;4964368;28;20043;-53
2023/06/03 10:11:23;;;;;;;9.25;3.83;;;;;;;19.53;54.18;97289.69;4959072;28;20101;-49
2023/06/03 10:14:04;;;;;;;9.63;3.90;;;;;;;19.84;53.04;97283.44;4963056;28;20133;-50
2023/06/03 10:16:30;;;;;;;7.05;3.88;;;;;;;20.08;52.25;97292.47;4959016;28;20603;-50
2023/06/03 10:18:58;;;;;;;9.88;4.30;;;;;;;20.18;52.43;97281.19;4955085;28;20510;-50
2023/06/03 10:21:24;;;;;;;9.13;4.43;;;;;;;20.32;52.23;97281.06;4955202;28;20106;-52
2023/06/03 10:23:53;;;;;;;9.32;4.30;;;;;;;20.19;51.84;97282.00;4959096;28;20039;-54
2023/06/03 10:26:21;;;;;;;12.20;4.95;;;;;;;19.98;52.99;97277.03;4961475;28;20053;-52
2023/06/03 10:28:50;;;;;;;7.78;3.88;;;;;;;20.10;52.80;97279.19;4956611;28;20479;-47
2023/06/03 10:31:16;;;;;;;8.57;4.07;;;;;;;20.19;52.23;97282.78;4956253;28;20055;-47
2023/06/03 10:33:43;;;;;;;14.27;4.22;;;;;;;20.36;52.22;97270.22;4936930;28;20537;-52
2023/06/03 10:36:11;;;;;;;7.70;4.88;;;;;;;20.55;52.33;97264.47;4957642;28;20502;-52
2023/06/03 10:38:39;;;;;;;9.05;4.25;;;;;;;20.54;51.55;97265.59;4961582;28;20506;-54
2023/06/03 10:41:08;;;;;;;8.15;4.75;;;;;;;20.69;52.17;97266.25;4953400;28;20093;-52
2023/06/03 10:43:36;;;;;;;10.32;4.40;;;;;;;20.78;51.60;97267.88;4952820;28;20053;-52
2023/06/03 10:46:04;;;;;;;9.43;4.05;;;;;;;20.59;51.81;97268.19;4960028;28;20042;-52
2023/06/03 10:48:33;;;;;;;9.98;4.18;;;;;;;20.72;51.29;97269.19;4959365;28;20047;-51
2023/06/03 10:51:15;;;;;;;8.52;4.38;;;;;;;20.75;51.02;97273.25;4954991;28;20051;-54
2023/06/03 10:54:18;;;;;;;20.10;5.32;;;;;;;20.77;50.83;97268.22;4955547;28;20482;-52
2023/06/03 10:56:59;;;;;;;11.18;4.57;;;;;;;21.09;50.42;97271.66;4959230;28;20054;-50
2023/06/03 10:59:29;;;;;;;8.70;4.93;;;;;;;21.17;49.62;97264.53;4962650;28;20038;-49
2023/06/03 11:01:59;;;;;;;8.00;4.22;;;;;;;21.08;50.02;97264.53;4956386;28;20043;-51
2023/06/03 11:04:35;;;;;;;8.48;4.30;;;;;;;20.88;50.72;97260.47;4957618;28;20409;-51
2023/06/03 11:07:04;;;;;;;9.50;4.35;;;;;;;20.94;50.95;97266.63;4956127;28;20120;-50
2023/06/03 11:09:39;;;;;;;12.05;4.65;;;;;;;20.75;50.67;97268.53;4955380;28;20044;-50
2023/06/03 11:12:13;;;;;;;10.02;4.20;;;;;;;20.83;50.10;97264.19;4952371;28;20716;-52
2023/06/03 11:14:42;;;;;;;7.05;4.10;;;;;;;20.95;49.87;97263.56;4955991;28;20118;-53
2023/06/03 11:17:10;;;;;;;7.95;4.50;;;;;;;21.16;50.17;97257.41;4953322;28;20157;-52
2023/06/03 11:19:55;;;;;;;12.05;4.70;;;;;;;21.14;49.13;97263.25;4953024;28;20095;-52
2023/06/03 11:22:28;;;;;;;9.27;4.40;;;;;;;21.37;49.72;97260.28;4954536;28;20039;-51
2023/06/03 11:24:55;;;;;;;9.00;5.15;;;;;;;21.47;48.92;97261.91;4955636;28;20042;-53
2023/06/03 11:27:24;;;;;;;7.15;4.30;;;;;;;21.81;47.89;97264.94;4954939;28;20593;-50
2023/06/03 11:29:56;;;;;;;7.80;4.43;;;;;;;21.84;48.00;97261.53;4955728;28;20469;-54
2023/06/03 11:32:27;;;;;;;8.30;4.88;;;;;;;21.99;48.84;97253.84;4954172;28;20502;-52
2023/06/03 11:35:02;;;;;;;9.30;4.38;;;;;;;;;;4954242;28;20062;-52
2023/06/03 11:37:41;;;;;;;7.35;4.10;;;;;;;22.19;47.09;97250.34;4956115;28;20189;-50
2023/06/03 11:40:14;;;;;;;6.82;4.13;;;;;;;22.26;47.42;97251.78;4958765;28;20330;-52
2023/06/03 11:42:50;;;;;;;8.57;4.28;;;;;;;22.42;46.43;97254.78;4958009;28;20346;-49